Flight Track Log - Related Links

Times and Time Zones

All times are in EDT time to prevent confusion due to time zone crossing. See the N531QS flight status page for this flight to view local times or setup timezone preferences in your user account.

Time Position Orientation Groundspeed Altitude Reporting Facility
EDT Latitude Longitude Course Direction KTS MPH feet Rate Location/Type
Sat 04:13:00 PM 32.6628 -80.3514 233° Southwest  Level FlightAware Approximate
Sat 04:14:00 PM 32.6206 -80.4176 233° Southwest  Level FlightAware Approximate
Sat 04:15:00 PM 32.5835 -80.4832 220° Southwest  Level FlightAware Approximate
Sat 04:16:00 PM 32.5383 -80.5465 230° Southwest  Level FlightAware Approximate
Sat 04:17:00 PM 32.4937 -80.6103 234° Southwest  Level FlightAware Approximate
Sat 04:18:00 PM 32.4526 -80.6772 234° Southwest  Level FlightAware Approximate
Sat 04:19:00 PM 32.4114 -80.7441 234° Southwest  Level FlightAware Approximate
Sat 04:20:00 PM 32.3702 -80.8110 234° Southwest  Level FlightAware Approximate
Sat 04:21:00 PM 32.3282 -80.8770 239° Southwest  Level FlightAware Approximate
Sat 04:22:00 PM 32.2853 -80.9418 228° Southwest  Level FlightAware Approximate
Sat 04:23:00 PM 32.2488 -81.0113 245° Southwest  Level FlightAware Approximate
Sat 04:24:00 PM 32.2076 -81.0757 220° Southwest  Level FlightAware Approximate
Sat 04:25:00 PM 32.1734 -81.1433 220° Southwest  Level FlightAware Approximate
Sat 04:26:00 PM 32.1200 -81.1966 220° Southwest  Level FlightAware Approximate
Sat 04:27:00 PM 32.1167 -81.2000 North  Level FlightAware Approximate
Sat 04:28:00 PM 32.1276 -81.2021 North  Level Estimated
Sat 04:29:00 PM 32.1276 -81.2021 North  Level Estimated
Sat 04:30:00 PM 32.1276 -81.2021 North  Level Estimated
Sat 04:31:00 PM 32.1276 -81.2021 North  Level Estimated
Sat 04:32:00 PM 32.1276 -81.2021 North  Level Estimated
Sat 04:33:00 PM 32.1276 -81.2021 North  Level Estimated
Sat 04:34:00 PM 32.1276 -81.2021 North  Level Estimated
Sat 04:35:00 PM 32.1276 -81.2021 North  Level Estimated
Sat 04:36:00 PM 32.1276 -81.2021 North  Level Estimated

Login

Don't have an account? Register now (free) for customized features, flight alerts, and more!